The Weather Page

Only for information, data not for operational purposes.

ELLX Aeronautical Report by METEOLUX

ELLX Current METAR and TAF

ELLX 181720Z 20006KT CAVOK 09/02 Q1017 NOSIG

TAF ELLX 181700Z 1818/1924 21008KT CAVOK BECMG 1902/1904 5000 BR SCT020 BKN100 TEMPO 1905/1910 2500 -RADZ BR SCT005 BKN009 BECMG 1910/1912 27007KT 9999 NSW SCT025 BECMG 1919/1921 20005KT CAVOK

METAR's and TAF's

METAR/TAF from US-NOAA-ADDS. Enter one or more ICAO codes separated by spaces:

METAR TAF 

A list of weather stations and their ICAO and IATA codes is found on this page.

Flight Preparation

EUMETSAT Infrared

Eumetsat Infrared

METEOX Radar

METEOX Radar Image

Comments are closed.